createdAt,value
2017-08-27T00:03:24.960Z,88.90
2017-08-27T00:08:26.797Z,90.40
2017-08-27T00:13:28.440Z,91.20
2017-08-27T00:18:30.100Z,92.20
2017-08-27T00:23:31.997Z,93.70
2017-08-27T00:28:33.652Z,92.60
2017-08-27T00:33:35.337Z,94.30
2017-08-27T00:38:37.141Z,96.90
2017-08-27T00:43:38.915Z,94.30
2017-08-27T00:48:40.713Z,95.90
2017-08-27T00:53:42.363Z,94.80
2017-08-27T00:58:44.035Z,94.50
2017-08-27T01:03:45.914Z,94.60
2017-08-27T01:08:48.405Z,93.50
2017-08-27T01:13:50.048Z,92.40
2017-08-27T01:18:51.801Z,95.10
2017-08-27T01:23:53.701Z,93.70
2017-08-27T01:28:56.025Z,95.80
2017-08-27T01:33:57.636Z,97.10
2017-08-27T01:38:59.363Z,95.30
2017-08-27T01:44:01.034Z,96.70
2017-08-27T01:49:02.707Z,94.20
2017-08-27T01:54:05.477Z,94.10
2017-08-27T01:59:07.300Z,93.10
2017-08-27T02:04:08.955Z,97.40
2017-08-27T02:09:11.155Z,94.50
2017-08-27T02:14:12.758Z,95.80
2017-08-27T02:19:14.586Z,95.60
2017-08-27T02:24:16.335Z,94.60
2017-08-27T02:29:18.034Z,94.50
2017-08-27T02:34:22.425Z,95.70
2017-08-27T02:39:39.032Z,95.80
2017-08-27T02:44:55.411Z,95.70
2017-08-27T02:50:12.484Z,95.20
2017-08-27T02:55:29.014Z,94.60
2017-08-27T03:00:45.453Z,94.50
2017-08-27T03:06:02.171Z,94.00
2017-08-27T03:11:18.697Z,93.00
2017-08-27T03:16:21.535Z,93.60
2017-08-27T03:21:34.733Z,94.40
2017-08-27T03:26:36.552Z,94.80
2017-08-27T03:31:38.197Z,93.30
2017-08-27T03:36:40.201Z,94.30
2017-08-27T03:41:41.979Z,93.60
2017-08-27T03:46:43.649Z,93.30
2017-08-27T03:51:45.997Z,93.40
2017-08-27T03:56:48.736Z,93.80
2017-08-27T04:01:50.332Z,96.20
2017-08-27T04:06:52.082Z,96.20
2017-08-27T04:11:53.696Z,94.50
2017-08-27T04:16:55.323Z,94.00
2017-08-27T04:21:56.996Z,95.60
2017-08-27T04:26:59.772Z,96.60
2017-08-27T04:32:01.467Z,96.40
2017-08-27T04:37:03.316Z,98.60
2017-08-27T04:42:05.120Z,95.80
2017-08-27T04:47:06.770Z,98.00
2017-08-27T04:52:08.542Z,97.30
2017-08-27T04:57:10.189Z,96.80
2017-08-27T05:02:12.834Z,97.70
2017-08-27T05:07:14.564Z,96.80
2017-08-27T05:12:16.253Z,97.20
2017-08-27T05:17:18.057Z,96.90
2017-08-27T05:22:20.726Z,96.30
2017-08-27T05:27:23.192Z,94.90
2017-08-27T05:32:25.477Z,99.80
2017-08-27T05:37:27.488Z,99.90
2017-08-27T05:42:29.132Z,99.10
2017-08-27T05:47:30.859Z,99.40
2017-08-27T05:52:32.842Z,97.10
2017-08-27T05:57:34.509Z,96.60
2017-08-27T06:02:40.150Z,96.30
2017-08-27T06:07:42.873Z,95.70
2017-08-27T06:12:44.525Z,95.60
2017-08-27T06:17:46.299Z,96.30
2017-08-27T06:22:48.602Z,97.90
2017-08-27T06:27:50.587Z,99.90
2017-08-27T06:32:53.284Z,98.00
2017-08-27T06:37:54.925Z,99.20
2017-08-27T06:42:56.732Z,99.90
2017-08-27T06:47:58.387Z,98.90
2017-08-27T06:53:00.180Z,99.90
2017-08-27T06:58:01.825Z,98.50
2017-08-27T07:03:03.525Z,99.90
2017-08-27T07:08:05.300Z,99.90
2017-08-27T07:13:06.971Z,99.90
2017-08-27T07:18:08.645Z,99.90
2017-08-27T07:23:10.285Z,99.90
2017-08-27T07:28:12.041Z,99.90
2017-08-27T07:33:13.705Z,99.90
2017-08-27T07:38:15.437Z,99.90
2017-08-27T07:43:18.108Z,99.90
2017-08-27T07:48:19.809Z,99.90
2017-08-27T07:53:21.458Z,99.90
2017-08-27T07:58:25.177Z,99.90
2017-08-27T08:03:27.943Z,99.90
2017-08-27T08:08:29.618Z,99.90
2017-08-27T08:13:32.182Z,99.90
2017-08-27T08:18:34.861Z,98.40
2017-08-27T08:23:37.257Z,98.90
2017-08-27T08:28:38.869Z,95.90
2017-08-27T08:33:40.671Z,93.90
2017-08-27T08:38:42.413Z,93.60
2017-08-27T08:43:44.145Z,91.80
2017-08-27T08:48:45.864Z,92.60
2017-08-27T08:53:52.587Z,90.60
2017-08-27T09:08:25.832Z,92.70
2017-08-27T09:13:27.609Z,91.00
2017-08-27T09:18:29.279Z,90.60
2017-08-27T09:23:30.981Z,89.60
2017-08-27T09:28:32.612Z,83.10
2017-08-27T09:33:34.297Z,77.30
2017-08-27T09:38:35.957Z,71.60
2017-08-27T09:43:37.664Z,77.00
2017-08-27T10:45:37.509Z,50.10
2017-08-27T10:50:39.263Z,47.90
2017-08-27T10:55:40.986Z,48.20
2017-08-27T11:00:42.735Z,49.40
2017-08-27T11:05:44.510Z,48.00
2017-08-27T11:10:46.157Z,51.50
2017-08-27T11:15:47.949Z,52.30
2017-08-27T11:20:53.846Z,51.10
2017-08-27T11:25:55.607Z,53.50
2017-08-27T11:30:57.328Z,51.70
2017-08-27T11:35:59.042Z,51.90
2017-08-27T11:41:00.829Z,51.70
2017-08-27T11:46:02.460Z,51.00
2017-08-27T11:51:04.582Z,51.70
2017-08-27T11:56:06.608Z,52.20
2017-08-27T12:01:08.285Z,52.80
2017-08-27T12:06:10.064Z,52.40
2017-08-27T12:11:11.733Z,52.20
2017-08-27T12:16:13.493Z,53.20
2017-08-27T12:21:15.201Z,51.50
2017-08-27T12:26:18.334Z,51.80
2017-08-27T12:31:19.969Z,52.00
2017-08-27T12:36:22.333Z,52.00
2017-08-27T12:41:23.911Z,50.20
2017-08-27T12:46:25.613Z,52.10
2017-08-27T12:51:27.295Z,50.10
2017-08-27T12:56:28.933Z,49.80
2017-08-27T13:01:30.613Z,50.90
2017-08-27T13:06:33.304Z,49.50
2017-08-27T13:11:35.076Z,50.50
2017-08-27T13:16:36.856Z,48.60
2017-08-27T13:21:38.629Z,50.40
2017-08-27T13:26:40.332Z,50.00
2017-08-27T13:31:41.976Z,50.80
2017-08-27T13:36:43.757Z,50.40
2017-08-27T13:41:45.528Z,51.10
2017-08-27T13:46:47.336Z,49.60
2017-08-27T13:51:48.981Z,49.80
2017-08-27T13:56:50.776Z,50.80
2017-08-27T14:01:52.441Z,51.50
2017-08-27T14:06:54.094Z,50.90
2017-08-27T14:11:55.869Z,52.10
2017-08-27T14:16:57.603Z,52.60
2017-08-27T14:21:59.320Z,51.70
2017-08-27T14:27:01.076Z,51.90
2017-08-27T14:32:02.662Z,51.40
2017-08-27T14:37:04.438Z,51.10
2017-08-27T14:42:06.100Z,50.00
2017-08-27T14:47:07.773Z,50.70
2017-08-27T14:52:09.341Z,50.90
2017-08-27T14:57:11.016Z,51.70
2017-08-27T15:02:12.688Z,50.40
2017-08-27T15:07:14.272Z,49.30
2017-08-27T15:12:15.933Z,51.20
2017-08-27T15:17:17.666Z,51.90
2017-08-27T15:22:19.376Z,52.90
2017-08-27T15:27:21.096Z,51.20
2017-08-27T15:32:22.730Z,51.50
2017-08-27T15:37:24.422Z,51.70
2017-08-27T15:42:26.069Z,51.50
2017-08-27T15:47:27.754Z,50.50
2017-08-27T15:52:29.513Z,51.20
2017-08-27T15:57:31.180Z,50.40
2017-08-27T16:02:32.978Z,50.80
2017-08-27T16:07:34.650Z,50.70
2017-08-27T16:12:36.322Z,51.20
2017-08-27T16:17:38.122Z,51.90
2017-08-27T16:22:39.806Z,51.40
2017-08-27T16:27:41.477Z,51.50
2017-08-27T16:32:43.145Z,52.70
2017-08-27T16:37:44.919Z,52.50
2017-08-27T16:42:46.605Z,53.60
2017-08-27T16:47:48.276Z,54.40
2017-08-27T16:52:50.045Z,55.40
2017-08-27T16:57:52.717Z,55.60
2017-08-27T17:02:54.497Z,54.60
2017-08-27T17:07:56.166Z,55.10
2017-08-27T17:12:57.862Z,56.20
2017-08-27T17:17:59.633Z,56.80
2017-08-27T17:23:01.342Z,58.20
2017-08-27T17:28:02.992Z,59.10
2017-08-27T17:33:04.657Z,59.60
2017-08-27T17:38:06.338Z,60.70
2017-08-27T17:43:07.998Z,61.60
2017-08-27T17:48:09.668Z,62.60
2017-08-27T17:53:11.353Z,63.20
2017-08-27T17:58:13.012Z,64.10
2017-08-27T18:03:14.693Z,65.50
2017-08-27T18:08:16.372Z,67.30
2017-08-27T18:13:18.036Z,67.30
2017-08-27T18:18:19.730Z,67.30
2017-08-27T18:23:21.357Z,68.40
2017-08-27T18:28:23.105Z,69.00
2017-08-27T18:33:24.823Z,70.00
2017-08-27T18:38:26.565Z,70.00
2017-08-27T18:43:28.181Z,71.00
2017-08-27T18:48:29.815Z,71.80
2017-08-27T18:53:31.477Z,71.60
2017-08-27T18:58:33.158Z,71.30
2017-08-27T19:03:34.994Z,71.80
2017-08-27T19:08:36.737Z,72.00
2017-08-27T19:13:38.374Z,71.60
2017-08-27T19:18:40.207Z,72.20
2017-08-27T19:23:43.671Z,72.50
2017-08-27T19:28:45.357Z,72.40
2017-08-27T19:33:47.116Z,72.50
2017-08-27T19:38:48.849Z,72.50
2017-08-27T19:43:50.485Z,72.40
2017-08-27T19:48:52.244Z,72.30
2017-08-27T19:53:53.909Z,72.40
2017-08-27T19:58:55.710Z,72.20
2017-08-27T20:03:57.482Z,72.60
2017-08-27T20:08:59.336Z,73.50
2017-08-27T20:14:01.140Z,73.60
2017-08-27T20:19:02.783Z,74.00
2017-08-27T20:24:04.505Z,74.10
2017-08-27T20:29:06.143Z,74.40
2017-08-27T20:34:07.938Z,73.90
2017-08-27T20:39:09.710Z,74.10
2017-08-27T20:44:11.350Z,74.50
2017-08-27T20:49:13.950Z,75.60
2017-08-27T20:54:15.551Z,77.10
2017-08-27T20:59:18.214Z,75.60
2017-08-27T21:04:19.894Z,75.70
2017-08-27T21:09:21.509Z,75.80
2017-08-27T21:14:23.241Z,76.40
2017-08-27T21:19:24.856Z,76.90
2017-08-27T21:24:26.482Z,79.20
2017-08-27T21:29:28.148Z,80.30
2017-08-27T21:34:29.938Z,80.60
2017-08-27T21:39:31.618Z,79.90
2017-08-27T21:44:33.265Z,79.80
2017-08-27T21:49:34.832Z,80.30
2017-08-27T21:54:36.508Z,81.50
2017-08-27T21:59:38.181Z,80.60
2017-08-27T22:04:39.863Z,81.20
2017-08-27T22:09:41.535Z,80.40
2017-08-27T22:14:43.213Z,80.70
2017-08-27T22:19:44.880Z,81.00
2017-08-27T22:24:47.049Z,81.90
2017-08-27T22:29:48.737Z,82.50
2017-08-27T22:34:50.406Z,83.20
2017-08-27T22:39:52.181Z,84.50
2017-08-27T22:44:53.866Z,85.90
2017-08-27T22:49:55.642Z,86.50
2017-08-27T22:54:57.314Z,87.40
2017-08-27T22:59:59.124Z,88.50
2017-08-27T23:05:00.852Z,88.70
2017-08-27T23:10:03.549Z,88.90
2017-08-27T23:15:05.230Z,90.50
2017-08-27T23:20:06.894Z,90.30
2017-08-27T23:25:08.577Z,90.90
2017-08-27T23:30:10.381Z,92.80
2017-08-27T23:35:12.180Z,93.90
2017-08-27T23:40:14.714Z,93.50
2017-08-27T23:45:16.502Z,94.20
2017-08-27T23:50:18.222Z,94.80
2017-08-27T23:55:20.889Z,94.50
